Terminal Aerodrome Forecast
Issued by NWS

Home | Current Version | Previous Version | Text Only | Print | Product List | Glossary On
Versions: 1 2 3 4 5 6 7 8 9 10 11 12 13 14 15 16 17 18 19 20 21 22 23 24 25
796
FTUS46 KOTX 172339
TAFCOE
TAF
KCOE 172339Z 1800/1824 23020G28KT P6SM SCT040 BKN080 BKN200
     FM180130 24015G23KT P6SM SCT080 BKN250
     FM180400 25012KT P6SM BKN250
     FM180700 11005KT P6SM BKN200
     FM181900 21010KT P6SM -RA OVC050=

USA.gov is the U.S. government's official web portal to all federal, state and local government web resources and services.